sensor_id;sensor_type;location;lat;lon;timestamp;P1;durP1;ratioP1;P2;durP2;ratioP2
9508;SDS011;4792;50.088;8.122;2023-07-08T00:00:20;7.57;;;6.45;;
9508;SDS011;4792;50.088;8.122;2023-07-08T00:02:49;7.35;;;6.35;;
9508;SDS011;4792;50.088;8.122;2023-07-08T00:05:19;8.90;;;6.40;;
9508;SDS011;4792;50.088;8.122;2023-07-08T00:07:49;8.07;;;6.57;;
9508;SDS011;4792;50.088;8.122;2023-07-08T00:10:18;9.02;;;7.07;;
9508;SDS011;4792;50.088;8.122;2023-07-08T00:12:47;10.13;;;6.68;;
9508;SDS011;4792;50.088;8.122;2023-07-08T00:15:16;8.85;;;6.53;;
9508;SDS011;4792;50.088;8.122;2023-07-08T00:17:44;9.70;;;6.40;;
9508;SDS011;4792;50.088;8.122;2023-07-08T00:20:13;8.38;;;6.90;;
9508;SDS011;4792;50.088;8.122;2023-07-08T00:22:42;8.85;;;6.35;;
9508;SDS011;4792;50.088;8.122;2023-07-08T00:25:14;8.68;;;6.72;;
9508;SDS011;4792;50.088;8.122;2023-07-08T00:27:42;10.48;;;6.40;;
9508;SDS011;4792;50.088;8.122;2023-07-08T00:30:20;9.18;;;7.28;;
9508;SDS011;4792;50.088;8.122;2023-07-08T00:32:49;8.63;;;6.50;;
9508;SDS011;4792;50.088;8.122;2023-07-08T00:35:21;9.20;;;7.00;;
9508;SDS011;4792;50.088;8.122;2023-07-08T00:37:50;9.00;;;6.40;;
9508;SDS011;4792;50.088;8.122;2023-07-08T00:40:21;8.70;;;7.07;;
9508;SDS011;4792;50.088;8.122;2023-07-08T00:42:51;9.00;;;6.65;;
9508;SDS011;4792;50.088;8.122;2023-07-08T00:45:22;8.23;;;6.38;;
9508;SDS011;4792;50.088;8.122;2023-07-08T00:48:00;10.30;;;7.00;;
9508;SDS011;4792;50.088;8.122;2023-07-08T00:50:33;9.23;;;6.38;;
9508;SDS011;4792;50.088;8.122;2023-07-08T00:55:53;7.85;;;6.03;;
9508;SDS011;4792;50.088;8.122;2023-07-08T00:58:23;7.70;;;6.55;;
9508;SDS011;4792;50.088;8.122;2023-07-08T01:00:52;9.50;;;6.50;;
9508;SDS011;4792;50.088;8.122;2023-07-08T01:03:23;9.65;;;6.68;;
9508;SDS011;4792;50.088;8.122;2023-07-08T01:05:51;10.57;;;6.78;;
9508;SDS011;4792;50.088;8.122;2023-07-08T01:08:22;6.85;;;6.07;;
9508;SDS011;4792;50.088;8.122;2023-07-08T01:10:57;7.35;;;6.38;;
9508;SDS011;4792;50.088;8.122;2023-07-08T01:13:28;7.70;;;6.45;;
9508;SDS011;4792;50.088;8.122;2023-07-08T01:15:59;8.48;;;6.63;;
9508;SDS011;4792;50.088;8.122;2023-07-08T01:18:27;10.65;;;6.93;;
9508;SDS011;4792;50.088;8.122;2023-07-08T01:20:55;8.43;;;6.30;;
9508;SDS011;4792;50.088;8.122;2023-07-08T01:23:25;11.10;;;6.43;;
9508;SDS011;4792;50.088;8.122;2023-07-08T01:25:53;8.23;;;6.40;;
9508;SDS011;4792;50.088;8.122;2023-07-08T01:28:21;8.00;;;6.03;;
9508;SDS011;4792;50.088;8.122;2023-07-08T01:30:49;12.57;;;6.43;;
9508;SDS011;4792;50.088;8.122;2023-07-08T01:33:18;9.13;;;6.60;;
9508;SDS011;4792;50.088;8.122;2023-07-08T01:35:48;9.55;;;6.93;;
9508;SDS011;4792;50.088;8.122;2023-07-08T01:38:17;8.40;;;6.50;;
9508;SDS011;4792;50.088;8.122;2023-07-08T01:40:50;12.38;;;6.63;;
9508;SDS011;4792;50.088;8.122;2023-07-08T01:43:19;11.40;;;6.50;;
9508;SDS011;4792;50.088;8.122;2023-07-08T01:45:47;8.82;;;6.55;;
9508;SDS011;4792;50.088;8.122;2023-07-08T01:48:17;9.57;;;6.43;;
9508;SDS011;4792;50.088;8.122;2023-07-08T01:50:47;8.00;;;6.22;;
9508;SDS011;4792;50.088;8.122;2023-07-08T01:53:18;9.13;;;6.97;;
9508;SDS011;4792;50.088;8.122;2023-07-08T01:55:47;7.88;;;6.35;;
9508;SDS011;4792;50.088;8.122;2023-07-08T01:58:16;7.68;;;6.60;;
9508;SDS011;4792;50.088;8.122;2023-07-08T02:00:44;9.82;;;7.18;;
9508;SDS011;4792;50.088;8.122;2023-07-08T02:03:14;9.40;;;6.72;;
9508;SDS011;4792;50.088;8.122;2023-07-08T02:05:42;10.18;;;6.63;;
9508;SDS011;4792;50.088;8.122;2023-07-08T02:08:10;8.25;;;6.75;;
9508;SDS011;4792;50.088;8.122;2023-07-08T02:10:38;7.78;;;6.15;;
9508;SDS011;4792;50.088;8.122;2023-07-08T02:13:07;9.15;;;6.57;;
9508;SDS011;4792;50.088;8.122;2023-07-08T02:15:36;7.68;;;6.40;;
9508;SDS011;4792;50.088;8.122;2023-07-08T02:18:04;8.95;;;6.97;;
9508;SDS011;4792;50.088;8.122;2023-07-08T02:20:32;7.82;;;6.45;;
9508;SDS011;4792;50.088;8.122;2023-07-08T02:23:00;8.60;;;6.88;;
9508;SDS011;4792;50.088;8.122;2023-07-08T02:25:27;9.00;;;7.28;;
9508;SDS011;4792;50.088;8.122;2023-07-08T02:27:55;8.35;;;6.60;;
9508;SDS011;4792;50.088;8.122;2023-07-08T02:30:23;8.38;;;6.20;;
9508;SDS011;4792;50.088;8.122;2023-07-08T02:32:53;8.52;;;6.68;;
9508;SDS011;4792;50.088;8.122;2023-07-08T02:35:24;8.52;;;7.28;;
9508;SDS011;4792;50.088;8.122;2023-07-08T02:37:53;8.55;;;6.68;;
9508;SDS011;4792;50.088;8.122;2023-07-08T02:40:22;7.82;;;6.25;;
9508;SDS011;4792;50.088;8.122;2023-07-08T02:42:50;8.30;;;5.95;;
9508;SDS011;4792;50.088;8.122;2023-07-08T02:45:18;9.57;;;6.05;;
9508;SDS011;4792;50.088;8.122;2023-07-08T02:47:46;8.63;;;6.75;;
9508;SDS011;4792;50.088;8.122;2023-07-08T02:50:15;7.32;;;6.00;;
9508;SDS011;4792;50.088;8.122;2023-07-08T02:52:45;8.23;;;6.05;;
9508;SDS011;4792;50.088;8.122;2023-07-08T02:55:13;7.82;;;6.18;;
9508;SDS011;4792;50.088;8.122;2023-07-08T02:57:41;8.23;;;6.30;;
9508;SDS011;4792;50.088;8.122;2023-07-08T03:00:09;7.05;;;5.68;;
9508;SDS011;4792;50.088;8.122;2023-07-08T03:02:38;14.13;;;6.57;;
9508;SDS011;4792;50.088;8.122;2023-07-08T03:05:06;8.60;;;6.15;;
9508;SDS011;4792;50.088;8.122;2023-07-08T03:07:35;8.70;;;6.40;;
9508;SDS011;4792;50.088;8.122;2023-07-08T03:10:03;6.57;;;5.88;;
9508;SDS011;4792;50.088;8.122;2023-07-08T03:12:32;9.07;;;6.28;;
9508;SDS011;4792;50.088;8.122;2023-07-08T03:15:00;8.25;;;6.55;;
9508;SDS011;4792;50.088;8.122;2023-07-08T03:17:28;7.68;;;6.25;;
9508;SDS011;4792;50.088;8.122;2023-07-08T03:19:56;11.43;;;5.68;;
9508;SDS011;4792;50.088;8.122;2023-07-08T03:22:24;6.97;;;5.80;;
9508;SDS011;4792;50.088;8.122;2023-07-08T03:24:53;7.68;;;6.03;;
9508;SDS011;4792;50.088;8.122;2023-07-08T03:27:22;9.05;;;6.30;;
9508;SDS011;4792;50.088;8.122;2023-07-08T03:29:50;9.07;;;5.85;;
9508;SDS011;4792;50.088;8.122;2023-07-08T03:32:18;8.05;;;6.25;;
9508;SDS011;4792;50.088;8.122;2023-07-08T03:34:46;7.25;;;5.65;;
9508;SDS011;4792;50.088;8.122;2023-07-08T03:37:13;7.65;;;6.03;;
9508;SDS011;4792;50.088;8.122;2023-07-08T03:39:41;7.57;;;5.60;;
9508;SDS011;4792;50.088;8.122;2023-07-08T03:42:11;6.88;;;5.47;;
9508;SDS011;4792;50.088;8.122;2023-07-08T03:44:39;8.95;;;6.70;;
9508;SDS011;4792;50.088;8.122;2023-07-08T03:47:07;9.95;;;6.50;;
9508;SDS011;4792;50.088;8.122;2023-07-08T03:49:35;7.60;;;6.20;;
9508;SDS011;4792;50.088;8.122;2023-07-08T03:52:03;8.18;;;6.25;;
9508;SDS011;4792;50.088;8.122;2023-07-08T03:54:31;7.75;;;6.18;;
9508;SDS011;4792;50.088;8.122;2023-07-08T03:56:59;8.98;;;6.47;;
9508;SDS011;4792;50.088;8.122;2023-07-08T03:59:29;9.93;;;6.70;;
9508;SDS011;4792;50.088;8.122;2023-07-08T04:01:56;8.63;;;6.05;;
9508;SDS011;4792;50.088;8.122;2023-07-08T04:04:24;7.68;;;6.10;;
9508;SDS011;4792;50.088;8.122;2023-07-08T04:06:52;7.03;;;6.15;;
9508;SDS011;4792;50.088;8.122;2023-07-08T04:09:21;8.25;;;6.35;;
9508;SDS011;4792;50.088;8.122;2023-07-08T04:11:49;7.72;;;5.57;;
9508;SDS011;4792;50.088;8.122;2023-07-08T04:14:16;8.07;;;6.55;;
9508;SDS011;4792;50.088;8.122;2023-07-08T04:16:47;8.00;;;6.13;;
9508;SDS011;4792;50.088;8.122;2023-07-08T04:19:18;7.47;;;5.90;;
9508;SDS011;4792;50.088;8.122;2023-07-08T04:21:46;8.48;;;6.20;;
9508;SDS011;4792;50.088;8.122;2023-07-08T04:24:15;8.05;;;5.97;;
9508;SDS011;4792;50.088;8.122;2023-07-08T04:26:44;7.55;;;5.55;;
9508;SDS011;4792;50.088;8.122;2023-07-08T04:29:14;8.77;;;6.43;;
9508;SDS011;4792;50.088;8.122;2023-07-08T04:31:43;7.10;;;5.63;;
9508;SDS011;4792;50.088;8.122;2023-07-08T04:34:12;8.85;;;6.07;;
9508;SDS011;4792;50.088;8.122;2023-07-08T04:36:41;8.55;;;6.15;;
9508;SDS011;4792;50.088;8.122;2023-07-08T04:39:09;8.88;;;5.75;;
9508;SDS011;4792;50.088;8.122;2023-07-08T04:41:37;6.78;;;5.93;;
9508;SDS011;4792;50.088;8.122;2023-07-08T04:44:07;7.55;;;5.97;;
9508;SDS011;4792;50.088;8.122;2023-07-08T04:46:37;8.10;;;6.22;;
9508;SDS011;4792;50.088;8.122;2023-07-08T04:49:07;7.72;;;6.00;;
9508;SDS011;4792;50.088;8.122;2023-07-08T04:51:37;8.55;;;6.20;;
9508;SDS011;4792;50.088;8.122;2023-07-08T04:54:05;7.68;;;6.40;;
9508;SDS011;4792;50.088;8.122;2023-07-08T04:56:35;11.43;;;6.50;;
9508;SDS011;4792;50.088;8.122;2023-07-08T04:59:04;7.85;;;6.00;;
9508;SDS011;4792;50.088;8.122;2023-07-08T05:01:32;8.80;;;6.75;;
9508;SDS011;4792;50.088;8.122;2023-07-08T05:04:00;9.30;;;6.00;;
9508;SDS011;4792;50.088;8.122;2023-07-08T05:06:29;8.52;;;6.22;;
9508;SDS011;4792;50.088;8.122;2023-07-08T05:08:59;12.70;;;6.05;;
9508;SDS011;4792;50.088;8.122;2023-07-08T05:11:27;9.15;;;6.25;;
9508;SDS011;4792;50.088;8.122;2023-07-08T05:13:55;8.00;;;6.00;;
9508;SDS011;4792;50.088;8.122;2023-07-08T05:16:23;8.07;;;6.30;;
9508;SDS011;4792;50.088;8.122;2023-07-08T05:18:51;8.25;;;6.15;;
9508;SDS011;4792;50.088;8.122;2023-07-08T05:21:19;9.48;;;6.18;;
9508;SDS011;4792;50.088;8.122;2023-07-08T05:23:47;9.55;;;5.57;;
9508;SDS011;4792;50.088;8.122;2023-07-08T05:26:17;7.35;;;5.75;;
9508;SDS011;4792;50.088;8.122;2023-07-08T05:28:45;8.75;;;5.60;;
9508;SDS011;4792;50.088;8.122;2023-07-08T05:31:13;7.40;;;5.70;;
9508;SDS011;4792;50.088;8.122;2023-07-08T05:33:41;6.57;;;5.50;;
9508;SDS011;4792;50.088;8.122;2023-07-08T05:36:09;8.35;;;6.22;;
9508;SDS011;4792;50.088;8.122;2023-07-08T05:38:37;12.00;;;5.90;;
9508;SDS011;4792;50.088;8.122;2023-07-08T05:41:04;6.95;;;5.72;;
9508;SDS011;4792;50.088;8.122;2023-07-08T05:43:34;8.05;;;5.93;;
9508;SDS011;4792;50.088;8.122;2023-07-08T05:46:02;8.07;;;5.10;;
9508;SDS011;4792;50.088;8.122;2023-07-08T05:48:37;6.50;;;5.30;;
9508;SDS011;4792;50.088;8.122;2023-07-08T05:51:05;6.88;;;5.68;;
9508;SDS011;4792;50.088;8.122;2023-07-08T05:53:33;7.78;;;5.55;;
9508;SDS011;4792;50.088;8.122;2023-07-08T05:56:02;8.32;;;5.65;;
9508;SDS011;4792;50.088;8.122;2023-07-08T05:58:30;6.35;;;5.70;;
9508;SDS011;4792;50.088;8.122;2023-07-08T06:01:00;7.85;;;5.45;;
9508;SDS011;4792;50.088;8.122;2023-07-08T06:03:28;7.68;;;5.47;;
9508;SDS011;4792;50.088;8.122;2023-07-08T06:05:56;6.82;;;5.28;;
9508;SDS011;4792;50.088;8.122;2023-07-08T06:08:24;10.27;;;5.95;;
9508;SDS011;4792;50.088;8.122;2023-07-08T06:10:52;6.57;;;5.60;;
9508;SDS011;4792;50.088;8.122;2023-07-08T06:13:20;9.07;;;5.93;;
9508;SDS011;4792;50.088;8.122;2023-07-08T06:15:48;7.20;;;5.80;;
9508;SDS011;4792;50.088;8.122;2023-07-08T06:18:17;8.77;;;6.28;;
9508;SDS011;4792;50.088;8.122;2023-07-08T06:20:50;12.85;;;5.95;;
9508;SDS011;4792;50.088;8.122;2023-07-08T06:23:19;11.13;;;6.18;;
9508;SDS011;4792;50.088;8.122;2023-07-08T06:25:47;10.50;;;6.35;;
9508;SDS011;4792;50.088;8.122;2023-07-08T06:28:15;11.13;;;6.10;;
9508;SDS011;4792;50.088;8.122;2023-07-08T06:30:43;10.80;;;5.88;;
9508;SDS011;4792;50.088;8.122;2023-07-08T06:33:11;7.70;;;5.93;;
9508;SDS011;4792;50.088;8.122;2023-07-08T06:35:41;7.53;;;5.30;;
9508;SDS011;4792;50.088;8.122;2023-07-08T06:38:10;9.20;;;5.43;;
9508;SDS011;4792;50.088;8.122;2023-07-08T06:40:38;7.00;;;5.07;;
9508;SDS011;4792;50.088;8.122;2023-07-08T06:43:06;8.17;;;5.40;;
9508;SDS011;4792;50.088;8.122;2023-07-08T06:45:33;8.27;;;5.97;;
9508;SDS011;4792;50.088;8.122;2023-07-08T06:48:01;8.20;;;6.13;;
9508;SDS011;4792;50.088;8.122;2023-07-08T06:50:29;11.20;;;6.30;;
9508;SDS011;4792;50.088;8.122;2023-07-08T06:52:59;7.93;;;6.10;;
9508;SDS011;4792;50.088;8.122;2023-07-08T06:55:26;7.93;;;6.27;;
9508;SDS011;4792;50.088;8.122;2023-07-08T06:57:56;8.77;;;5.97;;
9508;SDS011;4792;50.088;8.122;2023-07-08T07:00:24;8.33;;;5.70;;
9508;SDS011;4792;50.088;8.122;2023-07-08T07:02:52;7.23;;;5.40;;
9508;SDS011;4792;50.088;8.122;2023-07-08T07:05:20;11.83;;;6.70;;
9508;SDS011;4792;50.088;8.122;2023-07-08T07:07:49;8.70;;;6.10;;
9508;SDS011;4792;50.088;8.122;2023-07-08T07:10:20;7.37;;;5.57;;
9508;SDS011;4792;50.088;8.122;2023-07-08T07:12:48;7.00;;;5.63;;
9508;SDS011;4792;50.088;8.122;2023-07-08T07:15:16;8.70;;;6.10;;
9508;SDS011;4792;50.088;8.122;2023-07-08T07:17:43;8.77;;;6.10;;
9508;SDS011;4792;50.088;8.122;2023-07-08T07:20:12;8.87;;;5.70;;
9508;SDS011;4792;50.088;8.122;2023-07-08T07:22:40;8.67;;;6.10;;
9508;SDS011;4792;50.088;8.122;2023-07-08T07:25:08;7.13;;;5.10;;
9508;SDS011;4792;50.088;8.122;2023-07-08T07:27:37;8.98;;;6.18;;
9508;SDS011;4792;50.088;8.122;2023-07-08T07:30:06;7.30;;;5.68;;
9508;SDS011;4792;50.088;8.122;2023-07-08T07:32:39;7.15;;;5.20;;
9508;SDS011;4792;50.088;8.122;2023-07-08T07:35:07;9.98;;;6.15;;
9508;SDS011;4792;50.088;8.122;2023-07-08T07:37:39;9.43;;;6.30;;
9508;SDS011;4792;50.088;8.122;2023-07-08T07:40:07;8.88;;;6.20;;
9508;SDS011;4792;50.088;8.122;2023-07-08T07:42:40;8.57;;;5.68;;
9508;SDS011;4792;50.088;8.122;2023-07-08T07:45:09;7.63;;;5.43;;
9508;SDS011;4792;50.088;8.122;2023-07-08T07:47:37;8.88;;;5.60;;
9508;SDS011;4792;50.088;8.122;2023-07-08T07:50:06;7.75;;;5.22;;
9508;SDS011;4792;50.088;8.122;2023-07-08T07:52:35;7.28;;;5.63;;
9508;SDS011;4792;50.088;8.122;2023-07-08T07:55:03;7.40;;;5.78;;
9508;SDS011;4792;50.088;8.122;2023-07-08T07:57:32;8.88;;;6.13;;
9508;SDS011;4792;50.088;8.122;2023-07-08T08:00:01;7.43;;;5.80;;
9508;SDS011;4792;50.088;8.122;2023-07-08T08:02:29;8.25;;;5.97;;
9508;SDS011;4792;50.088;8.122;2023-07-08T08:04:57;7.70;;;5.97;;
9508;SDS011;4792;50.088;8.122;2023-07-08T08:07:25;9.02;;;6.10;;
9508;SDS011;4792;50.088;8.122;2023-07-08T08:09:52;8.27;;;6.40;;
9508;SDS011;4792;50.088;8.122;2023-07-08T08:12:21;7.72;;;5.63;;
9508;SDS011;4792;50.088;8.122;2023-07-08T08:14:51;7.88;;;6.15;;
9508;SDS011;4792;50.088;8.122;2023-07-08T08:17:20;7.55;;;5.78;;
9508;SDS011;4792;50.088;8.122;2023-07-08T08:19:48;13.15;;;6.07;;
9508;SDS011;4792;50.088;8.122;2023-07-08T08:22:16;7.28;;;5.97;;
9508;SDS011;4792;50.088;8.122;2023-07-08T08:24:43;7.25;;;5.68;;
9508;SDS011;4792;50.088;8.122;2023-07-08T08:27:11;8.50;;;6.32;;
9508;SDS011;4792;50.088;8.122;2023-07-08T08:29:39;6.93;;;5.85;;
9508;SDS011;4792;50.088;8.122;2023-07-08T08:32:10;7.43;;;5.95;;
9508;SDS011;4792;50.088;8.122;2023-07-08T08:34:39;6.40;;;5.40;;
9508;SDS011;4792;50.088;8.122;2023-07-08T08:37:07;7.43;;;5.97;;
9508;SDS011;4792;50.088;8.122;2023-07-08T08:39:35;7.05;;;5.82;;
9508;SDS011;4792;50.088;8.122;2023-07-08T08:42:03;8.10;;;5.95;;
9508;SDS011;4792;50.088;8.122;2023-07-08T08:44:32;7.88;;;6.38;;
9508;SDS011;4792;50.088;8.122;2023-07-08T08:47:03;8.40;;;5.85;;
9508;SDS011;4792;50.088;8.122;2023-07-08T08:49:35;9.35;;;6.28;;
9508;SDS011;4792;50.088;8.122;2023-07-08T08:52:07;6.60;;;5.88;;
9508;SDS011;4792;50.088;8.122;2023-07-08T08:54:35;6.60;;;5.90;;
9508;SDS011;4792;50.088;8.122;2023-07-08T08:57:06;6.88;;;5.80;;
9508;SDS011;4792;50.088;8.122;2023-07-08T08:59:42;7.63;;;5.18;;
9508;SDS011;4792;50.088;8.122;2023-07-08T09:02:17;7.47;;;5.50;;
9508;SDS011;4792;50.088;8.122;2023-07-08T09:04:51;13.50;;;5.93;;
9508;SDS011;4792;50.088;8.122;2023-07-08T09:07:20;13.23;;;5.85;;
9508;SDS011;4792;50.088;8.122;2023-07-08T09:09:57;12.10;;;5.70;;
9508;SDS011;4792;50.088;8.122;2023-07-08T09:12:29;10.35;;;5.85;;
9508;SDS011;4792;50.088;8.122;2023-07-08T09:14:57;7.50;;;5.50;;
9508;SDS011;4792;50.088;8.122;2023-07-08T09:17:27;12.45;;;5.60;;
9508;SDS011;4792;50.088;8.122;2023-07-08T09:20:05;8.35;;;5.60;;
9508;SDS011;4792;50.088;8.122;2023-07-08T09:22:42;9.93;;;5.85;;
9508;SDS011;4792;50.088;8.122;2023-07-08T09:25:26;8.90;;;6.13;;
9508;SDS011;4792;50.088;8.122;2023-07-08T09:27:56;7.90;;;6.15;;
9508;SDS011;4792;50.088;8.122;2023-07-08T09:30:24;8.55;;;5.90;;
9508;SDS011;4792;50.088;8.122;2023-07-08T09:32:55;11.07;;;6.07;;
9508;SDS011;4792;50.088;8.122;2023-07-08T09:35:23;7.90;;;5.68;;
9508;SDS011;4792;50.088;8.122;2023-07-08T09:37:54;10.35;;;5.85;;
9508;SDS011;4792;50.088;8.122;2023-07-08T09:40:31;10.38;;;5.35;;
9508;SDS011;4792;50.088;8.122;2023-07-08T09:43:00;7.82;;;5.47;;
9508;SDS011;4792;50.088;8.122;2023-07-08T09:45:29;11.88;;;6.28;;
9508;SDS011;4792;50.088;8.122;2023-07-08T09:48:14;9.32;;;5.55;;
9508;SDS011;4792;50.088;8.122;2023-07-08T09:50:47;10.43;;;5.97;;
9508;SDS011;4792;50.088;8.122;2023-07-08T09:53:16;7.30;;;5.88;;
9508;SDS011;4792;50.088;8.122;2023-07-08T09:55:45;9.55;;;5.68;;
9508;SDS011;4792;50.088;8.122;2023-07-08T09:58:15;13.65;;;5.80;;
9508;SDS011;4792;50.088;8.122;2023-07-08T10:00:50;8.85;;;6.03;;
9508;SDS011;4792;50.088;8.122;2023-07-08T10:03:19;8.27;;;6.43;;
9508;SDS011;4792;50.088;8.122;2023-07-08T10:05:49;9.93;;;6.03;;
9508;SDS011;4792;50.088;8.122;2023-07-08T10:08:25;7.43;;;5.85;;
9508;SDS011;4792;50.088;8.122;2023-07-08T10:10:57;10.10;;;6.22;;
9508;SDS011;4792;50.088;8.122;2023-07-08T10:13:29;7.85;;;6.55;;
9508;SDS011;4792;50.088;8.122;2023-07-08T10:16:09;12.70;;;6.60;;
9508;SDS011;4792;50.088;8.122;2023-07-08T10:18:41;11.10;;;6.38;;
9508;SDS011;4792;50.088;8.122;2023-07-08T10:21:11;8.55;;;5.78;;
9508;SDS011;4792;50.088;8.122;2023-07-08T10:23:45;11.30;;;5.78;;
9508;SDS011;4792;50.088;8.122;2023-07-08T10:26:18;11.18;;;6.10;;
9508;SDS011;4792;50.088;8.122;2023-07-08T10:28:53;8.40;;;5.93;;
9508;SDS011;4792;50.088;8.122;2023-07-08T10:31:27;7.90;;;6.10;;
9508;SDS011;4792;50.088;8.122;2023-07-08T10:34:02;12.65;;;6.05;;
9508;SDS011;4792;50.088;8.122;2023-07-08T10:36:39;9.80;;;6.15;;
9508;SDS011;4792;50.088;8.122;2023-07-08T10:39:17;7.95;;;6.20;;
9508;SDS011;4792;50.088;8.122;2023-07-08T10:41:58;10.07;;;6.63;;
9508;SDS011;4792;50.088;8.122;2023-07-08T10:44:31;8.23;;;6.13;;
9508;SDS011;4792;50.088;8.122;2023-07-08T10:47:06;9.65;;;6.07;;
9508;SDS011;4792;50.088;8.122;2023-07-08T10:49:44;9.13;;;5.97;;
9508;SDS011;4792;50.088;8.122;2023-07-08T10:52:22;10.95;;;6.60;;
9508;SDS011;4792;50.088;8.122;2023-07-08T10:55:01;10.73;;;6.72;;
9508;SDS011;4792;50.088;8.122;2023-07-08T10:57:41;8.80;;;6.05;;
9508;SDS011;4792;50.088;8.122;2023-07-08T11:00:27;10.07;;;5.88;;
9508;SDS011;4792;50.088;8.122;2023-07-08T11:06:06;8.75;;;6.30;;
9508;SDS011;4792;50.088;8.122;2023-07-08T11:08:37;12.63;;;6.53;;
9508;SDS011;4792;50.088;8.122;2023-07-08T11:11:11;12.70;;;6.18;;
9508;SDS011;4792;50.088;8.122;2023-07-08T11:13:44;10.82;;;5.97;;
9508;SDS011;4792;50.088;8.122;2023-07-08T11:16:20;7.57;;;6.22;;
9508;SDS011;4792;50.088;8.122;2023-07-08T11:18:52;9.50;;;5.93;;
9508;SDS011;4792;50.088;8.122;2023-07-08T11:21:21;10.85;;;6.38;;
9508;SDS011;4792;50.088;8.122;2023-07-08T11:23:51;15.90;;;6.55;;
9508;SDS011;4792;50.088;8.122;2023-07-08T11:26:22;9.43;;;6.20;;
9508;SDS011;4792;50.088;8.122;2023-07-08T11:28:53;11.40;;;6.10;;
9508;SDS011;4792;50.088;8.122;2023-07-08T11:31:24;8.40;;;6.22;;
9508;SDS011;4792;50.088;8.122;2023-07-08T11:33:53;9.30;;;6.13;;
9508;SDS011;4792;50.088;8.122;2023-07-08T11:36:23;12.95;;;6.47;;
9508;SDS011;4792;50.088;8.122;2023-07-08T11:38:52;8.75;;;5.90;;
9508;SDS011;4792;50.088;8.122;2023-07-08T11:41:23;7.68;;;6.43;;
9508;SDS011;4792;50.088;8.122;2023-07-08T11:43:56;9.02;;;6.60;;
9508;SDS011;4792;50.088;8.122;2023-07-08T11:46:26;11.48;;;6.90;;
9508;SDS011;4792;50.088;8.122;2023-07-08T11:48:56;9.35;;;6.25;;
9508;SDS011;4792;50.088;8.122;2023-07-08T11:51:29;11.85;;;6.38;;
9508;SDS011;4792;50.088;8.122;2023-07-08T11:53:59;10.38;;;6.55;;
9508;SDS011;4792;50.088;8.122;2023-07-08T11:56:29;8.23;;;5.90;;
9508;SDS011;4792;50.088;8.122;2023-07-08T11:59:16;9.80;;;6.40;;
9508;SDS011;4792;50.088;8.122;2023-07-08T12:01:46;9.52;;;6.20;;
9508;SDS011;4792;50.088;8.122;2023-07-08T12:04:17;9.95;;;6.30;;
9508;SDS011;4792;50.088;8.122;2023-07-08T12:07:02;10.32;;;6.40;;
9508;SDS011;4792;50.088;8.122;2023-07-08T12:09:35;9.20;;;5.88;;
9508;SDS011;4792;50.088;8.122;2023-07-08T12:12:07;9.95;;;6.35;;
9508;SDS011;4792;50.088;8.122;2023-07-08T12:14:42;11.35;;;6.35;;
9508;SDS011;4792;50.088;8.122;2023-07-08T12:17:10;8.68;;;6.38;;
9508;SDS011;4792;50.088;8.122;2023-07-08T12:19:39;9.90;;;6.57;;
9508;SDS011;4792;50.088;8.122;2023-07-08T12:22:10;10.07;;;6.65;;
9508;SDS011;4792;50.088;8.122;2023-07-08T12:24:39;10.57;;;6.13;;
9508;SDS011;4792;50.088;8.122;2023-07-08T12:27:09;10.88;;;6.07;;
9508;SDS011;4792;50.088;8.122;2023-07-08T12:29:39;9.48;;;6.45;;
9508;SDS011;4792;50.088;8.122;2023-07-08T12:32:09;9.38;;;5.78;;
9508;SDS011;4792;50.088;8.122;2023-07-08T12:34:39;10.88;;;6.32;;
9508;SDS011;4792;50.088;8.122;2023-07-08T12:37:10;10.30;;;5.80;;
9508;SDS011;4792;50.088;8.122;2023-07-08T12:39:39;7.80;;;5.90;;
9508;SDS011;4792;50.088;8.122;2023-07-08T12:42:10;7.45;;;5.55;;
9508;SDS011;4792;50.088;8.122;2023-07-08T12:44:39;8.40;;;5.75;;
9508;SDS011;4792;50.088;8.122;2023-07-08T12:47:10;10.52;;;6.35;;
9508;SDS011;4792;50.088;8.122;2023-07-08T12:49:38;13.38;;;6.25;;
9508;SDS011;4792;50.088;8.122;2023-07-08T12:52:06;8.57;;;6.22;;
9508;SDS011;4792;50.088;8.122;2023-07-08T12:54:47;8.48;;;5.85;;
9508;SDS011;4792;50.088;8.122;2023-07-08T12:57:16;9.93;;;5.95;;
9508;SDS011;4792;50.088;8.122;2023-07-08T12:59:45;7.55;;;5.68;;
9508;SDS011;4792;50.088;8.122;2023-07-08T13:02:14;7.15;;;5.57;;
9508;SDS011;4792;50.088;8.122;2023-07-08T13:04:43;10.23;;;6.07;;
9508;SDS011;4792;50.088;8.122;2023-07-08T13:07:13;8.88;;;5.95;;
9508;SDS011;4792;50.088;8.122;2023-07-08T13:09:51;9.60;;;5.57;;
9508;SDS011;4792;50.088;8.122;2023-07-08T13:12:20;7.68;;;5.97;;
9508;SDS011;4792;50.088;8.122;2023-07-08T13:14:51;10.05;;;5.88;;
9508;SDS011;4792;50.088;8.122;2023-07-08T13:17:20;7.72;;;6.05;;
9508;SDS011;4792;50.088;8.122;2023-07-08T13:19:48;14.90;;;6.53;;
9508;SDS011;4792;50.088;8.122;2023-07-08T13:22:16;10.35;;;5.75;;
9508;SDS011;4792;50.088;8.122;2023-07-08T13:24:45;8.32;;;6.10;;
9508;SDS011;4792;50.088;8.122;2023-07-08T13:27:16;8.40;;;5.47;;
9508;SDS011;4792;50.088;8.122;2023-07-08T13:29:48;10.75;;;5.38;;
9508;SDS011;4792;50.088;8.122;2023-07-08T13:32:16;12.05;;;5.38;;
9508;SDS011;4792;50.088;8.122;2023-07-08T13:34:43;8.38;;;5.10;;
9508;SDS011;4792;50.088;8.122;2023-07-08T13:37:12;7.63;;;5.78;;
9508;SDS011;4792;50.088;8.122;2023-07-08T13:39:43;8.32;;;5.25;;
9508;SDS011;4792;50.088;8.122;2023-07-08T13:42:11;7.40;;;5.22;;
9508;SDS011;4792;50.088;8.122;2023-07-08T13:44:44;9.18;;;5.28;;
9508;SDS011;4792;50.088;8.122;2023-07-08T13:47:19;11.20;;;5.05;;
9508;SDS011;4792;50.088;8.122;2023-07-08T13:49:49;7.80;;;4.72;;
9508;SDS011;4792;50.088;8.122;2023-07-08T13:52:22;6.93;;;4.75;;
9508;SDS011;4792;50.088;8.122;2023-07-08T13:54:50;9.82;;;5.05;;
9508;SDS011;4792;50.088;8.122;2023-07-08T13:57:21;8.48;;;5.13;;
9508;SDS011;4792;50.088;8.122;2023-07-08T13:59:52;6.82;;;4.82;;
9508;SDS011;4792;50.088;8.122;2023-07-08T14:02:21;7.78;;;4.90;;
9508;SDS011;4792;50.088;8.122;2023-07-08T14:04:50;11.05;;;5.10;;
9508;SDS011;4792;50.088;8.122;2023-07-08T14:07:21;11.98;;;4.78;;
9508;SDS011;4792;50.088;8.122;2023-07-08T14:09:50;10.15;;;5.10;;
9508;SDS011;4792;50.088;8.122;2023-07-08T14:12:18;10.88;;;5.53;;
9508;SDS011;4792;50.088;8.122;2023-07-08T14:14:49;9.93;;;5.10;;
9508;SDS011;4792;50.088;8.122;2023-07-08T14:17:19;6.97;;;5.13;;
9508;SDS011;4792;50.088;8.122;2023-07-08T14:19:48;7.20;;;5.03;;
9508;SDS011;4792;50.088;8.122;2023-07-08T14:22:21;7.47;;;4.88;;
9508;SDS011;4792;50.088;8.122;2023-07-08T14:24:51;8.60;;;5.13;;
9508;SDS011;4792;50.088;8.122;2023-07-08T14:27:19;8.05;;;4.85;;
9508;SDS011;4792;50.088;8.122;2023-07-08T14:29:47;7.10;;;4.80;;
9508;SDS011;4792;50.088;8.122;2023-07-08T14:32:18;10.05;;;4.82;;
9508;SDS011;4792;50.088;8.122;2023-07-08T14:34:49;8.77;;;4.57;;
9508;SDS011;4792;50.088;8.122;2023-07-08T14:37:20;6.80;;;4.28;;
9508;SDS011;4792;50.088;8.122;2023-07-08T14:39:48;6.72;;;4.82;;
9508;SDS011;4792;50.088;8.122;2023-07-08T14:42:16;7.85;;;4.85;;
9508;SDS011;4792;50.088;8.122;2023-07-08T14:44:46;10.82;;;4.70;;
9508;SDS011;4792;50.088;8.122;2023-07-08T14:47:16;8.27;;;5.35;;
9508;SDS011;4792;50.088;8.122;2023-07-08T14:49:47;7.63;;;4.50;;
9508;SDS011;4792;50.088;8.122;2023-07-08T14:52:16;6.05;;;4.65;;
9508;SDS011;4792;50.088;8.122;2023-07-08T14:54:44;8.38;;;4.40;;
9508;SDS011;4792;50.088;8.122;2023-07-08T14:57:12;7.28;;;4.70;;
9508;SDS011;4792;50.088;8.122;2023-07-08T14:59:43;7.20;;;5.13;;
9508;SDS011;4792;50.088;8.122;2023-07-08T15:02:15;5.35;;;4.30;;
9508;SDS011;4792;50.088;8.122;2023-07-08T15:04:51;6.57;;;4.70;;
9508;SDS011;4792;50.088;8.122;2023-07-08T15:07:30;8.07;;;5.05;;
9508;SDS011;4792;50.088;8.122;2023-07-08T15:09:58;8.65;;;4.60;;
9508;SDS011;4792;50.088;8.122;2023-07-08T15:12:26;9.60;;;5.30;;
9508;SDS011;4792;50.088;8.122;2023-07-08T15:14:54;10.60;;;5.15;;
9508;SDS011;4792;50.088;8.122;2023-07-08T15:17:22;6.25;;;4.75;;
9508;SDS011;4792;50.088;8.122;2023-07-08T15:19:51;10.77;;;5.53;;
9508;SDS011;4792;50.088;8.122;2023-07-08T15:22:19;9.35;;;4.88;;
9508;SDS011;4792;50.088;8.122;2023-07-08T15:24:47;8.23;;;4.75;;
9508;SDS011;4792;50.088;8.122;2023-07-08T15:27:15;7.63;;;4.70;;
9508;SDS011;4792;50.088;8.122;2023-07-08T15:29:48;7.15;;;4.85;;
9508;SDS011;4792;50.088;8.122;2023-07-08T15:32:16;6.65;;;4.93;;
9508;SDS011;4792;50.088;8.122;2023-07-08T15:35:10;8.55;;;5.05;;